createdAt,value
2023-05-02T05:03:22.646Z,85.13
2023-05-02T05:04:22.568Z,83.36
2023-05-02T05:05:22.788Z,82.94
2023-05-02T05:06:22.549Z,82.63
2023-05-02T05:07:22.331Z,82.33
2023-05-02T05:08:23.437Z,82.44
2023-05-02T05:09:23.270Z,81.79
2023-05-02T05:10:22.385Z,81.61
2023-05-02T05:11:23.278Z,81.74
2023-05-02T05:12:22.295Z,81.02
2023-05-02T05:13:23.422Z,80.58
2023-05-02T05:14:23.314Z,80.06
2023-05-02T05:15:22.144Z,79.86
2023-05-02T05:16:22.358Z,79.95
2023-05-02T05:17:22.318Z,79.53
2023-05-02T05:18:22.262Z,79.11
2023-05-02T05:19:23.195Z,78.79
2023-05-02T05:20:23.363Z,79.03
2023-05-02T05:21:22.354Z,78.66
2023-05-02T05:22:23.219Z,78.36
2023-05-02T05:23:23.304Z,78.12
2023-05-02T05:24:23.609Z,78.25
2023-05-02T05:25:23.464Z,77.98
2023-05-02T05:26:22.438Z,77.87
2023-05-02T05:27:23.315Z,78.08
2023-05-02T05:28:22.345Z,77.82
2023-05-02T05:29:23.349Z,77.98
2023-05-02T05:30:22.404Z,77.57
2023-05-02T05:31:22.475Z,77.34
2023-05-02T05:32:22.539Z,77.25
2023-05-02T05:33:23.645Z,77.11
2023-05-02T05:34:23.549Z,77.46
2023-05-02T05:35:23.601Z,77.69
2023-05-02T05:36:23.872Z,77.25
2023-05-02T05:37:23.690Z,77.34
2023-05-02T05:38:22.769Z,78.11
2023-05-02T05:39:37.465Z,77.74
2023-05-02T05:40:23.040Z,78.07
2023-05-02T05:41:23.105Z,78.33
2023-05-02T05:42:24.126Z,78.44
2023-05-02T05:43:24.217Z,78.37
2023-05-02T05:44:23.204Z,78.24
2023-05-02T05:45:23.238Z,78.40
2023-05-02T05:46:24.401Z,78.15
2023-05-02T05:47:24.589Z,78.03
2023-05-02T05:48:24.473Z,77.76
2023-05-02T05:49:23.413Z,77.84
2023-05-02T05:50:23.475Z,78.13
2023-05-02T05:51:24.509Z,77.94
2023-05-02T05:52:24.551Z,78.41
2023-05-02T05:53:23.736Z,78.35
2023-05-02T05:54:23.649Z,78.33
2023-05-02T05:55:24.679Z,78.32
2023-05-02T05:56:25.023Z,78.26
2023-05-02T05:57:24.709Z,78.57
2023-05-02T05:58:24.725Z,78.36
2023-05-02T05:59:24.787Z,78.99
2023-05-02T06:00:23.831Z,78.90
2023-05-02T06:01:25.020Z,78.91
2023-05-02T06:02:23.908Z,78.85
2023-05-02T06:03:24.847Z,79.06
2023-05-02T06:04:24.896Z,78.83
2023-05-02T06:05:23.803Z,78.72
2023-05-02T06:06:23.874Z,79.19
2023-05-02T06:07:24.854Z,78.97
2023-05-02T06:08:24.896Z,79.11
2023-05-02T06:09:24.913Z,78.85
2023-05-02T06:10:24.930Z,78.06
2023-05-02T06:11:24.084Z,77.96
2023-05-02T06:12:24.969Z,77.79
2023-05-02T06:13:24.055Z,77.45
2023-05-02T06:14:25.056Z,77.69
2023-05-02T06:16:45.867Z,77.56
2023-05-02T06:17:43.469Z,78.00
2023-05-02T06:18:44.432Z,78.03
2023-05-02T06:19:43.502Z,78.30
2023-05-02T06:20:43.560Z,78.39
2023-05-02T06:21:44.536Z,78.81
2023-05-02T06:22:44.595Z,78.80
2023-05-02T06:23:43.634Z,78.66
2023-05-02T06:24:44.675Z,79.21
2023-05-02T06:25:45.181Z,79.24
2023-05-02T06:26:44.767Z,79.01
2023-05-02T06:27:44.788Z,79.16
2023-05-02T06:28:43.900Z,78.85
2023-05-02T06:29:44.826Z,79.27
2023-05-02T06:30:43.907Z,78.89
2023-05-02T06:31:44.944Z,79.23
2023-05-02T06:32:43.996Z,78.71
2023-05-02T06:33:43.918Z,78.35
2023-05-02T06:34:44.928Z,78.45
2023-05-02T06:35:43.975Z,78.56
2023-05-02T06:36:43.963Z,78.30
2023-05-02T06:37:43.989Z,78.28
2023-05-02T06:38:45.013Z,78.24
2023-05-02T06:39:44.019Z,78.28
2023-05-02T06:40:45.085Z,77.99
2023-05-02T06:41:44.055Z,78.39
2023-05-02T06:42:44.078Z,78.67
2023-05-02T06:43:45.110Z,78.12
2023-05-02T06:44:44.127Z,78.09
2023-05-02T06:45:45.136Z,78.36
2023-05-02T06:46:44.276Z,78.67
2023-05-02T06:47:44.343Z,78.88
2023-05-02T06:48:45.225Z,79.08
2023-05-02T06:49:45.255Z,79.41
2023-05-02T06:50:45.281Z,79.25
2023-05-02T06:51:45.365Z,79.23
2023-05-02T06:52:45.313Z,79.67
2023-05-02T06:53:44.362Z,79.61
2023-05-02T06:54:44.382Z,79.52
2023-05-02T06:55:44.372Z,79.54
2023-05-02T06:56:46.008Z,79.81
2023-05-02T06:57:45.424Z,79.42
2023-05-02T06:58:44.466Z,79.28
2023-05-02T06:59:45.493Z,79.50
2023-05-02T07:00:45.605Z,79.22
2023-05-02T07:01:44.538Z,78.64
2023-05-02T07:02:44.645Z,78.60
2023-05-02T07:03:44.587Z,78.65
2023-05-02T07:04:45.658Z,78.61
2023-05-02T07:05:44.598Z,79.05
2023-05-02T07:06:44.641Z,79.09
2023-05-02T07:07:45.629Z,78.84
2023-05-02T07:08:44.690Z,79.37
2023-05-02T07:09:44.673Z,79.46
2023-05-02T07:10:45.792Z,79.17
2023-05-02T07:11:45.751Z,79.52
2023-05-02T07:12:44.772Z,80.02
2023-05-02T07:13:44.769Z,79.15
2023-05-02T07:14:44.830Z,79.20
2023-05-02T07:15:44.829Z,79.45
2023-05-02T07:16:44.946Z,79.48
2023-05-02T07:17:44.903Z,79.81
2023-05-02T07:18:45.878Z,79.74
2023-05-02T07:19:45.973Z,79.24
2023-05-02T07:20:46.009Z,78.85
2023-05-02T07:21:45.985Z,79.07
2023-05-02T07:22:45.002Z,78.77
2023-05-02T07:23:46.042Z,79.09
2023-05-02T07:24:46.097Z,78.87
2023-05-02T07:25:46.130Z,79.22
2023-05-02T07:26:45.159Z,78.59
2023-05-02T07:27:46.200Z,78.80
2023-05-02T07:28:46.166Z,78.15
2023-05-02T07:29:46.208Z,78.62
2023-05-02T07:30:46.218Z,78.62
2023-05-02T07:31:46.272Z,79.03
2023-05-02T07:32:46.304Z,78.80
2023-05-02T07:33:46.341Z,79.22
2023-05-02T07:34:45.274Z,78.91
2023-05-02T07:35:46.277Z,78.50
2023-05-02T07:36:46.335Z,78.94
2023-05-02T07:37:46.381Z,79.49
2023-05-02T07:38:45.393Z,78.94
2023-05-02T07:39:46.471Z,79.67
2023-05-02T07:40:46.495Z,79.39
2023-05-02T07:41:45.521Z,78.85
2023-05-02T07:42:46.576Z,78.46
2023-05-02T07:43:46.568Z,78.30
2023-05-02T07:44:46.654Z,78.30
2023-05-02T07:45:46.728Z,77.67
2023-05-02T07:46:46.745Z,78.13
2023-05-02T07:47:46.183Z,77.66
2023-05-02T07:48:46.788Z,78.06
2023-05-02T07:49:45.710Z,77.92
2023-05-02T07:50:46.699Z,78.39
2023-05-02T07:51:45.734Z,78.38
2023-05-02T07:52:46.908Z,78.15
2023-05-02T07:53:46.864Z,77.84
2023-05-02T07:54:46.644Z,78.08
2023-05-02T07:58:24.248Z,77.38
2023-05-02T07:59:25.191Z,76.56
2023-05-02T08:00:25.313Z,76.88
2023-05-02T08:01:25.053Z,76.97
2023-05-02T08:02:24.239Z,76.48
2023-05-02T08:03:25.333Z,76.13
2023-05-02T08:04:24.348Z,75.87
2023-05-02T08:05:25.900Z,75.63
2023-05-02T08:06:25.171Z,75.40
2023-05-02T08:07:24.116Z,75.65
2023-05-02T08:08:24.114Z,75.35
2023-05-02T08:09:25.124Z,75.24
2023-05-02T08:10:25.071Z,75.60
2023-05-02T08:11:25.071Z,76.11
2023-05-02T08:12:25.134Z,76.32
2023-05-02T08:13:25.069Z,76.03
2023-05-02T08:19:13.300Z,78.85
2023-05-02T08:20:14.102Z,76.82
2023-05-02T08:22:32.754Z,75.62
2023-05-02T08:23:32.520Z,75.48
2023-05-02T08:24:33.683Z,74.86
2023-05-02T08:25:33.641Z,75.04
2023-05-02T08:26:33.907Z,74.92
2023-05-02T08:27:34.213Z,75.04
2023-05-02T08:28:33.514Z,74.55
2023-05-02T08:29:33.654Z,74.93
2023-05-02T08:30:33.580Z,74.74
2023-05-02T08:31:33.608Z,74.07
2023-05-02T08:33:51.853Z,74.23
2023-05-02T08:34:53.455Z,73.45
2023-05-02T08:35:52.727Z,73.15
2023-05-02T08:36:52.509Z,73.02
2023-05-02T08:37:52.541Z,74.03
2023-05-02T08:38:51.598Z,74.12
2023-05-02T08:39:52.693Z,73.72
2023-05-02T08:40:51.527Z,74.49
2023-05-02T08:41:52.496Z,74.24
2023-05-02T08:42:52.641Z,74.82
2023-05-02T08:43:52.459Z,75.08
2023-05-02T08:44:51.471Z,74.79
2023-05-02T08:45:52.474Z,74.62
2023-05-02T08:46:52.523Z,74.94
2023-05-02T08:47:51.655Z,75.03
2023-05-02T08:48:51.403Z,75.04
2023-05-02T08:49:52.523Z,75.76
2023-05-02T08:50:52.446Z,74.22
2023-05-02T08:51:52.431Z,74.62
2023-05-02T08:52:51.467Z,74.08
2023-05-02T08:53:52.536Z,73.12
2023-05-02T08:54:51.580Z,72.80
2023-05-02T08:55:52.581Z,72.87
2023-05-02T08:56:52.607Z,73.70
2023-05-02T08:57:52.145Z,73.25
2023-05-02T08:58:51.708Z,72.56
2023-05-02T08:59:51.686Z,72.93
2023-05-02T09:00:51.758Z,72.63
2023-05-02T09:01:51.675Z,72.93
2023-05-02T09:04:11.187Z,74.22
2023-05-02T09:05:11.096Z,73.06
2023-05-02T09:06:12.178Z,73.89
2023-05-02T09:07:11.866Z,73.08
2023-05-02T09:08:11.868Z,72.93
2023-05-02T09:09:11.924Z,73.84
2023-05-02T09:10:11.931Z,73.54
2023-05-02T09:11:12.057Z,73.99
2023-05-02T09:12:10.979Z,73.66
2023-05-02T09:13:11.050Z,73.84
2023-05-02T09:14:11.982Z,72.78
2023-05-02T09:15:12.018Z,72.78
2023-05-02T09:16:12.075Z,73.33
2023-05-02T09:17:11.111Z,72.58
2023-05-02T09:18:12.108Z,72.56
2023-05-02T09:19:11.120Z,72.15
2023-05-02T09:20:12.150Z,71.96
2023-05-02T09:21:12.796Z,72.35
2023-05-02T09:22:11.200Z,72.87
2023-05-02T09:23:12.220Z,72.16
2023-05-02T09:24:11.269Z,72.32
2023-05-02T09:25:11.291Z,72.57
2023-05-02T09:26:12.433Z,72.49
2023-05-02T09:27:12.443Z,72.49
2023-05-02T09:28:11.361Z,72.85
2023-05-02T09:29:11.359Z,73.08
2023-05-02T09:30:12.538Z,73.43
2023-05-02T09:31:11.441Z,73.07
2023-05-02T09:32:11.465Z,72.32
2023-05-02T09:33:11.489Z,72.27
2023-05-02T09:34:11.642Z,73.04
2023-05-02T09:35:12.500Z,73.64
2023-05-02T09:36:12.529Z,73.02
2023-05-02T09:37:12.549Z,74.12
2023-05-02T09:38:12.601Z,73.73
2023-05-02T09:39:12.602Z,72.45
2023-05-02T09:40:12.675Z,72.33
2023-05-02T09:41:11.719Z,73.72
2023-05-02T09:42:11.632Z,73.32
2023-05-02T09:43:11.650Z,72.87
2023-05-02T09:44:12.936Z,72.91
2023-05-02T09:45:12.696Z,73.32
2023-05-02T09:46:12.733Z,72.04
2023-05-02T09:47:12.677Z,72.59
2023-05-02T09:48:12.920Z,72.78
2023-05-02T09:49:11.715Z,72.52
2023-05-02T09:50:12.718Z,72.62
2023-05-02T09:51:12.769Z,72.96
2023-05-02T09:52:11.755Z,72.89
2023-05-02T09:53:11.770Z,73.22
2023-05-02T09:54:11.784Z,72.01
2023-05-02T09:55:12.772Z,72.15
2023-05-02T09:56:12.806Z,72.72
2023-05-02T09:57:12.780Z,72.60
2023-05-02T09:58:12.815Z,72.09
2023-05-02T09:59:12.860Z,71.81
2023-05-02T10:00:11.917Z,71.31
2023-05-02T10:01:12.991Z,71.66
2023-05-02T10:02:12.243Z,71.61
2023-05-02T10:03:13.013Z,70.63
2023-05-02T10:04:12.022Z,70.42
2023-05-02T10:05:13.000Z,71.02
2023-05-02T10:06:13.088Z,70.21
2023-05-02T10:07:12.080Z,70.47
2023-05-02T10:08:13.169Z,71.58
2023-05-02T10:09:16.625Z,71.21
2023-05-02T10:10:13.128Z,70.17
2023-05-02T10:11:13.085Z,69.29
2023-05-02T10:12:12.092Z,70.14
2023-05-02T10:13:12.071Z,69.09
2023-05-02T10:14:13.097Z,69.66
2023-05-02T10:15:13.070Z,69.69
2023-05-02T10:16:12.136Z,69.36
2023-05-02T10:17:12.056Z,68.76
2023-05-02T10:18:12.092Z,69.50
2023-05-02T10:19:13.025Z,68.28
2023-05-02T10:20:13.014Z,67.36
2023-05-02T10:21:12.012Z,67.41
2023-05-02T10:22:13.045Z,66.90
2023-05-02T10:23:12.014Z,68.06
2023-05-02T10:24:13.013Z,67.42
2023-05-02T10:25:12.014Z,67.20
2023-05-02T10:26:13.006Z,68.99
2023-05-02T10:27:12.973Z,68.82
2023-05-02T10:28:11.966Z,68.14
2023-05-02T10:29:12.966Z,68.33
2023-05-02T10:30:12.970Z,68.47
2023-05-02T10:31:12.024Z,69.21
2023-05-02T10:32:13.307Z,68.23
2023-05-02T10:33:13.183Z,67.51
2023-05-02T10:34:12.167Z,68.77
2023-05-02T10:35:11.925Z,66.47
2023-05-02T10:36:11.912Z,66.41
2023-05-02T10:37:11.944Z,66.83
2023-05-02T10:38:12.964Z,67.62
2023-05-02T10:39:12.899Z,67.09
2023-05-02T10:40:12.960Z,66.04
2023-05-02T10:41:11.876Z,66.33
2023-05-02T10:42:12.882Z,65.98
2023-05-02T10:43:12.951Z,65.98
2023-05-02T10:44:12.866Z,66.17
2023-05-02T10:45:12.849Z,65.32
2023-05-02T10:46:12.879Z,65.39
2023-05-02T10:47:11.838Z,64.67
2023-05-02T10:48:11.876Z,64.50
2023-05-02T10:49:11.870Z,66.17
2023-05-02T10:50:11.823Z,65.42
2023-05-02T10:51:12.808Z,65.95
2023-05-02T10:52:11.791Z,66.31
2023-05-02T10:53:12.868Z,67.06
2023-05-02T10:54:11.780Z,66.01
2023-05-02T10:55:11.793Z,66.69
2023-05-02T10:56:12.784Z,65.89
2023-05-02T10:57:12.746Z,67.23
2023-05-02T10:58:11.838Z,66.78
2023-05-02T10:59:12.770Z,65.84
2023-05-02T11:00:12.815Z,65.75
2023-05-02T11:01:11.903Z,65.81
2023-05-02T11:02:13.040Z,65.41
2023-05-02T11:03:13.140Z,65.34
2023-05-02T11:04:13.008Z,65.73
2023-05-02T11:05:13.111Z,65.85
2023-05-02T11:06:13.136Z,65.04
2023-05-02T11:07:13.170Z,64.70
2023-05-02T11:08:12.300Z,65.35
2023-05-02T11:09:12.244Z,65.24
2023-05-02T11:10:13.267Z,66.46
2023-05-02T11:11:13.269Z,65.80
2023-05-02T11:12:13.296Z,64.75
2023-05-02T11:13:13.339Z,64.66
2023-05-02T11:14:14.381Z,64.00
2023-05-02T11:15:13.346Z,64.91
2023-05-02T11:16:13.419Z,65.02
2023-05-02T11:17:13.477Z,64.15
2023-05-02T11:18:13.595Z,65.00
2023-05-02T11:19:14.477Z,64.19
2023-05-02T11:20:13.632Z,64.92
2023-05-02T11:21:12.541Z,64.47
2023-05-02T11:22:12.618Z,64.74
2023-05-02T11:23:13.656Z,64.39
2023-05-02T11:24:13.751Z,63.35
2023-05-02T11:25:13.772Z,63.53
2023-05-02T11:26:13.777Z,64.10
2023-05-02T11:27:13.803Z,63.54
2023-05-02T11:28:13.829Z,64.38
2023-05-02T11:29:13.887Z,64.16
2023-05-02T11:30:14.256Z,65.24
2023-05-02T11:31:13.960Z,66.63
2023-05-02T11:32:13.043Z,66.10
2023-05-02T11:33:14.810Z,65.19
2023-05-02T11:34:14.157Z,65.37
2023-05-02T11:35:13.160Z,66.26
2023-05-02T11:36:13.205Z,65.48
2023-05-02T11:37:14.260Z,65.79
2023-05-02T11:38:13.326Z,66.45
2023-05-02T11:39:13.482Z,66.35
2023-05-02T11:40:13.746Z,67.69
2023-05-02T11:41:14.536Z,67.14
2023-05-02T11:42:13.383Z,67.52
2023-05-02T11:43:13.431Z,69.09
2023-05-02T11:44:14.433Z,68.03
2023-05-02T11:46:32.693Z,69.21
2023-05-02T11:47:32.465Z,70.25
2023-05-02T11:48:33.386Z,70.11
2023-05-02T11:49:33.382Z,70.49
2023-05-02T11:50:32.370Z,70.99
2023-05-02T11:51:32.346Z,69.17
2023-05-02T11:52:32.324Z,69.72
2023-05-02T11:53:32.372Z,69.57
2023-05-02T11:54:33.353Z,70.36
2023-05-02T11:55:33.337Z,70.98
2023-05-02T11:56:32.319Z,70.51
2023-05-02T11:57:33.328Z,70.66
2023-05-02T11:58:32.338Z,69.98
2023-05-02T11:59:32.301Z,69.49
2023-05-02T12:00:46.801Z,70.10
2023-05-02T12:01:32.345Z,69.94
2023-05-02T12:02:33.515Z,68.89
2023-05-02T12:03:32.592Z,68.07
2023-05-02T12:04:32.489Z,68.23
2023-05-02T12:05:32.536Z,68.27
2023-05-02T12:06:32.535Z,68.11
2023-05-02T12:07:32.589Z,65.64
2023-05-02T12:08:33.610Z,65.68
2023-05-02T12:09:33.644Z,64.69
2023-05-02T12:10:32.697Z,64.64
2023-05-02T12:11:33.729Z,65.14
2023-05-02T12:12:32.725Z,65.05
2023-05-02T12:13:32.755Z,65.95
2023-05-02T12:14:32.768Z,64.49
2023-05-02T12:15:32.792Z,66.68
2023-05-02T12:16:32.936Z,64.65
2023-05-02T12:17:32.890Z,65.41
2023-05-02T12:18:32.908Z,67.10
2023-05-02T12:19:33.913Z,65.90
2023-05-02T12:20:32.930Z,67.11
2023-05-02T12:21:33.957Z,66.14
2023-05-02T12:22:32.993Z,66.11
2023-05-02T12:23:34.774Z,66.23
2023-05-02T12:24:34.036Z,66.41
2023-05-02T12:25:33.059Z,67.41
2023-05-02T12:26:34.118Z,66.49
2023-05-02T12:27:33.164Z,64.96
2023-05-02T12:28:34.159Z,64.76
2023-05-02T12:29:33.200Z,65.83
2023-05-02T12:30:34.270Z,66.10
2023-05-02T12:31:33.295Z,65.65
2023-05-02T12:32:34.402Z,65.63
2023-05-02T12:33:34.357Z,63.48
2023-05-02T12:34:33.445Z,63.28
2023-05-02T12:35:34.454Z,63.21
2023-05-02T12:36:34.464Z,63.88
2023-05-02T12:37:33.457Z,61.54
2023-05-02T12:38:33.520Z,65.04
2023-05-02T12:39:34.568Z,63.80
2023-05-02T12:40:34.574Z,64.70
2023-05-02T12:41:33.715Z,62.98
2023-05-02T12:42:33.648Z,64.66
2023-05-02T12:43:36.110Z,65.91
2023-05-02T12:44:33.719Z,66.98
2023-05-02T12:45:33.686Z,66.97
2023-05-02T12:46:33.750Z,66.40
2023-05-02T12:47:34.717Z,64.18
2023-05-02T12:48:34.656Z,64.98
2023-05-02T12:49:33.638Z,65.35
2023-05-02T12:50:34.654Z,65.83
2023-05-02T12:51:34.931Z,65.11
2023-05-02T12:52:33.674Z,64.95
2023-05-02T12:53:33.629Z,64.45
2023-05-02T12:54:34.676Z,65.14
2023-05-02T12:55:34.601Z,64.51
2023-05-02T12:56:33.589Z,66.04
2023-05-02T12:57:33.567Z,66.13
2023-05-02T12:58:33.589Z,65.91
2023-05-02T12:59:34.576Z,66.69
2023-05-02T13:00:33.622Z,66.48
2023-05-02T13:01:34.922Z,66.07
2023-05-02T13:02:33.597Z,67.22
2023-05-02T13:03:33.671Z,66.98
2023-05-02T13:04:33.534Z,66.22
2023-05-02T13:05:34.554Z,67.39
2023-05-02T13:06:33.575Z,67.70
2023-05-02T13:07:34.490Z,68.34
2023-05-02T13:08:34.523Z,68.60
2023-05-02T13:09:33.523Z,69.28
2023-05-02T13:10:33.489Z,68.49
2023-05-02T13:11:34.491Z,69.20
2023-05-02T13:12:33.456Z,69.57
2023-05-02T13:13:34.448Z,69.02
2023-05-02T13:14:33.612Z,66.39
2023-05-02T13:15:34.432Z,66.92
2023-05-02T13:16:33.509Z,66.87
2023-05-02T13:17:34.578Z,65.64
2023-05-02T13:18:33.615Z,65.95
2023-05-02T13:19:33.570Z,66.43
2023-05-02T13:20:34.572Z,65.74
2023-05-02T13:21:33.605Z,65.95
2023-05-02T13:22:34.613Z,65.30
2023-05-02T13:23:33.625Z,65.88
2023-05-02T13:24:33.617Z,65.36
2023-05-02T13:25:34.606Z,65.19
2023-05-02T13:26:33.641Z,65.78
2023-05-02T13:27:34.686Z,66.19
2023-05-02T13:28:33.744Z,66.99
2023-05-02T13:29:34.799Z,66.10
2023-05-02T13:30:34.877Z,65.03
2023-05-02T13:31:33.906Z,64.92
2023-05-02T13:32:34.952Z,65.78
2023-05-02T13:33:34.911Z,65.63
2023-05-02T13:34:34.932Z,65.45
2023-05-02T13:35:35.463Z,66.37
2023-05-02T13:36:33.934Z,66.22
2023-05-02T13:37:34.974Z,66.88
2023-05-02T13:38:35.014Z,66.44
2023-05-02T13:39:35.056Z,66.58
2023-05-02T13:40:34.070Z,67.54
2023-05-02T13:41:35.118Z,68.26
2023-05-02T13:42:35.188Z,65.88
2023-05-02T13:43:35.223Z,64.42
2023-05-02T13:44:35.297Z,65.50
2023-05-02T13:45:35.348Z,64.99
2023-05-02T13:46:35.456Z,64.82
2023-05-02T13:47:35.500Z,65.31
2023-05-02T13:48:35.515Z,65.47
2023-05-02T13:49:34.561Z,65.50
2023-05-02T13:50:34.616Z,65.38
2023-05-02T13:51:35.690Z,66.33
2023-05-02T13:52:35.688Z,68.02
2023-05-02T13:53:34.738Z,67.78
2023-05-02T13:54:34.842Z,65.70
2023-05-02T13:55:35.933Z,65.46
2023-05-02T13:56:34.992Z,65.48
2023-05-02T13:57:35.019Z,65.44
2023-05-02T13:58:36.016Z,64.39
2023-05-02T13:59:35.092Z,64.83
2023-05-02T14:00:36.264Z,65.49
2023-05-02T14:01:36.286Z,66.43
2023-05-02T14:02:35.283Z,67.05
2023-05-02T14:03:36.306Z,66.65
2023-05-02T14:04:36.292Z,67.88
2023-05-02T14:05:36.387Z,66.99
2023-05-02T14:06:36.512Z,67.32
2023-05-02T14:07:35.469Z,66.16
2023-05-02T14:08:35.512Z,65.23
2023-05-02T14:09:36.581Z,66.68
2023-05-02T14:10:36.616Z,66.20
2023-05-02T14:11:35.689Z,65.95
2023-05-02T14:12:35.693Z,66.11
2023-05-02T14:13:36.740Z,67.03
2023-05-02T14:14:35.809Z,67.28
2023-05-02T14:15:36.874Z,66.04
2023-05-02T14:16:37.024Z,65.82
2023-05-02T14:17:35.940Z,65.17
2023-05-02T14:18:35.957Z,64.43
2023-05-02T14:19:35.981Z,64.19
2023-05-02T14:20:36.998Z,64.82
2023-05-02T14:21:37.019Z,63.89
2023-05-02T14:22:36.074Z,65.45
2023-05-02T14:23:37.122Z,65.27
2023-05-02T14:24:37.177Z,65.80
2023-05-02T14:25:37.247Z,66.89
2023-05-02T14:26:37.292Z,66.16
2023-05-02T14:27:36.340Z,65.78
2023-05-02T14:28:39.127Z,65.96
2023-05-02T14:29:37.375Z,65.06
2023-05-02T14:30:37.362Z,64.62
2023-05-02T14:31:36.436Z,65.73
2023-05-02T14:32:36.376Z,64.98
2023-05-02T14:33:37.368Z,65.68
2023-05-02T14:34:36.349Z,65.67
2023-05-02T14:35:36.331Z,65.54
2023-05-02T14:36:36.332Z,66.25
2023-05-02T14:37:37.405Z,65.78
2023-05-02T14:38:37.320Z,66.20
2023-05-02T14:39:37.303Z,68.66
2023-05-02T14:40:37.306Z,69.53
2023-05-02T14:41:37.300Z,68.05
2023-05-02T14:42:37.308Z,68.85
2023-05-02T14:43:37.274Z,68.38
2023-05-02T14:44:37.270Z,68.03
2023-05-02T14:45:36.287Z,68.38
2023-05-02T14:46:36.300Z,67.27
2023-05-02T14:47:37.273Z,67.85
2023-05-02T14:48:36.245Z,66.91
2023-05-02T14:49:37.242Z,68.00
2023-05-02T14:50:36.233Z,67.44
2023-05-02T14:51:37.218Z,68.01
2023-05-02T14:52:36.216Z,68.09
2023-05-02T14:53:36.200Z,67.76
2023-05-02T14:54:36.210Z,68.24
2023-05-02T14:55:36.241Z,67.53
2023-05-02T14:56:37.289Z,67.92
2023-05-02T14:57:36.329Z,68.01
2023-05-02T14:58:36.419Z,67.30
2023-05-02T14:59:36.473Z,66.74
2023-05-02T15:00:36.471Z,67.07
2023-05-02T15:01:36.575Z,67.08
2023-05-02T15:02:36.697Z,67.24
2023-05-02T15:03:49.200Z,67.25
2023-05-02T15:04:37.642Z,67.50
2023-05-02T15:05:37.555Z,66.78
2023-05-02T15:06:37.065Z,66.86
2023-05-02T15:07:37.553Z,67.04
2023-05-02T15:08:37.403Z,65.97
2023-05-02T15:09:36.547Z,65.72
2023-05-02T15:10:37.548Z,65.55
2023-05-02T15:11:37.553Z,65.72
2023-05-02T15:12:36.557Z,65.97
2023-05-02T15:13:37.536Z,65.75
2023-05-02T15:14:37.530Z,66.82
2023-05-02T15:15:36.486Z,66.00
2023-05-02T15:16:37.579Z,66.43
2023-05-02T15:17:36.491Z,67.26
2023-05-02T15:18:36.488Z,68.73
2023-05-02T15:19:37.510Z,68.44
2023-05-02T15:20:36.499Z,68.95
2023-05-02T15:21:37.492Z,68.49
2023-05-02T15:22:37.477Z,69.10
2023-05-02T15:23:36.443Z,68.10
2023-05-02T15:24:37.467Z,67.47
2023-05-02T15:25:37.498Z,67.70
2023-05-02T15:26:36.461Z,68.24
2023-05-02T15:27:36.440Z,68.26
2023-05-02T15:28:36.441Z,67.32
2023-05-02T15:29:37.480Z,66.81
